createdAt,value
2023-12-11T00:00:43.331Z,0.00
2023-12-11T00:01:43.396Z,0.00
2023-12-11T00:02:44.895Z,0.00
2023-12-11T00:03:43.261Z,0.00
2023-12-11T00:04:43.193Z,0.00
2023-12-11T00:05:43.212Z,0.00
2023-12-11T00:06:43.330Z,0.00
2023-12-11T00:07:43.177Z,0.00
2023-12-11T00:08:43.213Z,0.00
2023-12-11T00:09:43.234Z,0.00
2023-12-11T00:10:43.254Z,0.00
2023-12-11T00:11:43.197Z,0.00
2023-12-11T00:12:43.166Z,0.00
2023-12-11T00:13:43.125Z,0.00
2023-12-11T00:14:43.094Z,0.00
2023-12-11T00:15:43.095Z,0.00
2023-12-11T00:16:43.048Z,0.00
2023-12-11T00:17:43.121Z,0.00
2023-12-11T00:18:44.144Z,0.00
2023-12-11T00:19:43.763Z,0.00
2023-12-11T00:20:43.027Z,0.00
2023-12-11T00:21:43.112Z,0.00
2023-12-11T00:22:43.013Z,0.00
2023-12-11T00:23:43.006Z,0.00
2023-12-11T00:24:43.002Z,0.00
2023-12-11T00:25:42.978Z,0.00
2023-12-11T00:26:42.954Z,0.00
2023-12-11T00:27:42.985Z,0.00
2023-12-11T00:28:42.945Z,0.00
2023-12-11T00:29:42.996Z,0.00
2023-12-11T00:30:42.974Z,0.00
2023-12-11T00:31:42.968Z,0.00
2023-12-11T00:32:42.980Z,0.00
2023-12-11T00:33:43.060Z,0.00
2023-12-11T00:34:43.049Z,0.00
2023-12-11T00:35:42.895Z,0.00
2023-12-11T00:36:42.890Z,0.00
2023-12-11T00:37:42.835Z,0.00
2023-12-11T00:38:42.971Z,0.00
2023-12-11T00:39:43.129Z,0.00
2023-12-11T00:40:43.022Z,0.00
2023-12-11T00:41:42.787Z,0.00
2023-12-11T00:42:42.816Z,0.00
2023-12-11T00:43:45.575Z,0.00
2023-12-11T00:44:42.735Z,0.00
2023-12-11T00:45:42.829Z,0.00
2023-12-11T00:46:42.714Z,0.00
2023-12-11T00:47:42.708Z,0.00
2023-12-11T00:48:42.919Z,0.00
2023-12-11T00:49:42.756Z,0.00
2023-12-11T00:50:42.678Z,0.00
2023-12-11T00:51:42.704Z,0.00
2023-12-11T00:52:42.675Z,0.00
2023-12-11T00:53:42.681Z,0.00
2023-12-11T00:54:42.679Z,0.00
2023-12-11T00:55:43.506Z,0.00
2023-12-11T00:56:42.654Z,0.00
2023-12-11T00:57:42.624Z,0.00
2023-12-11T00:58:42.699Z,0.00
2023-12-11T00:59:43.422Z,0.00
2023-12-11T01:00:42.615Z,0.00
2023-12-11T01:01:42.653Z,0.00
2023-12-11T01:02:42.605Z,0.00
2023-12-11T01:03:42.643Z,0.00
2023-12-11T01:04:42.732Z,0.00
2023-12-11T01:05:42.586Z,0.00
2023-12-11T01:06:42.553Z,0.00
2023-12-11T01:07:42.497Z,0.00
2023-12-11T01:08:42.478Z,0.00
2023-12-11T01:09:42.584Z,0.00
2023-12-11T01:10:42.474Z,0.00
2023-12-11T01:11:42.494Z,0.00
2023-12-11T01:12:42.464Z,0.00
2023-12-11T01:13:42.496Z,0.00
2023-12-11T01:14:42.508Z,0.00
2023-12-11T01:15:42.463Z,0.00
2023-12-11T01:16:42.407Z,0.00
2023-12-11T01:17:42.423Z,0.00
2023-12-11T01:18:42.446Z,0.00
2023-12-11T01:19:42.647Z,0.00
2023-12-11T01:20:43.158Z,0.00
2023-12-11T01:21:42.398Z,0.00
2023-12-11T01:22:42.408Z,0.00
2023-12-11T01:23:42.311Z,0.00
2023-12-11T01:24:42.474Z,0.00
2023-12-11T01:25:42.307Z,0.00
2023-12-11T01:26:42.317Z,0.00
2023-12-11T01:27:42.323Z,0.00
2023-12-11T01:28:42.261Z,0.00
2023-12-11T01:29:42.256Z,0.00
2023-12-11T01:30:42.369Z,0.00
2023-12-11T01:31:42.222Z,0.00
2023-12-11T01:32:42.265Z,0.00
2023-12-11T01:33:42.316Z,0.00
2023-12-11T01:34:42.276Z,0.00
2023-12-11T01:35:42.314Z,0.00
2023-12-11T01:36:42.226Z,0.00
2023-12-11T01:37:42.152Z,0.00
2023-12-11T01:38:42.153Z,0.00
2023-12-11T01:39:42.176Z,0.00
2023-12-11T01:40:43.045Z,0.00
2023-12-11T01:41:42.189Z,0.00
2023-12-11T01:42:42.204Z,0.00
2023-12-11T01:43:42.221Z,0.00
2023-12-11T01:44:42.146Z,0.00
2023-12-11T01:45:42.133Z,0.00
2023-12-11T01:46:42.239Z,0.00
2023-12-11T01:47:42.132Z,0.00
2023-12-11T01:49:42.059Z,0.00
2023-12-11T01:50:42.014Z,0.00
2023-12-11T01:51:42.008Z,0.00
2023-12-11T01:52:42.030Z,0.00
2023-12-11T01:53:41.989Z,0.00
2023-12-11T01:54:41.992Z,0.00
2023-12-11T01:55:41.962Z,0.00
2023-12-11T01:56:41.945Z,0.00
2023-12-11T01:57:42.068Z,0.00
2023-12-11T01:58:41.937Z,0.00
2023-12-11T01:59:42.370Z,0.00
2023-12-11T02:00:42.706Z,0.00
2023-12-11T02:01:42.889Z,0.00
2023-12-11T02:02:41.907Z,0.00
2023-12-11T02:03:42.010Z,0.00
2023-12-11T02:04:42.094Z,0.00
2023-12-11T02:05:41.958Z,0.00
2023-12-11T02:06:41.993Z,0.00
2023-12-11T02:07:41.874Z,0.00
2023-12-11T02:08:41.838Z,0.00
2023-12-11T02:09:41.960Z,0.00
2023-12-11T02:10:41.840Z,0.00
2023-12-11T02:11:43.860Z,0.00
2023-12-11T02:12:41.901Z,0.00
2023-12-11T02:13:41.841Z,0.00
2023-12-11T02:14:41.854Z,0.00
2023-12-11T02:15:41.883Z,0.00
2023-12-11T02:16:41.901Z,0.00
2023-12-11T02:17:41.870Z,0.00
2023-12-11T02:18:41.837Z,0.00
2023-12-11T02:19:41.949Z,0.00
2023-12-11T02:20:42.533Z,0.00
2023-12-11T02:21:41.747Z,0.00
2023-12-11T02:22:41.762Z,0.00
2023-12-11T02:23:41.693Z,0.00
2023-12-11T02:24:41.656Z,0.00
2023-12-11T02:25:41.634Z,0.00
2023-12-11T02:26:41.603Z,0.00
2023-12-11T02:27:41.671Z,0.00
2023-12-11T02:28:41.592Z,0.00
2023-12-11T02:29:41.607Z,0.00
2023-12-11T02:30:41.625Z,0.00
2023-12-11T02:31:41.576Z,0.00
2023-12-11T02:32:41.771Z,0.00
2023-12-11T02:33:41.708Z,0.00
2023-12-11T02:34:41.687Z,0.00
2023-12-11T02:35:41.594Z,0.00
2023-12-11T02:36:41.548Z,0.00
2023-12-11T02:37:41.525Z,0.00
2023-12-11T02:38:42.398Z,0.00
2023-12-11T02:39:41.524Z,0.00
2023-12-11T02:40:41.664Z,0.00
2023-12-11T02:41:42.298Z,0.00
2023-12-11T02:42:42.257Z,0.00
2023-12-11T02:43:41.472Z,0.00
2023-12-11T02:44:41.425Z,0.00
2023-12-11T02:45:41.460Z,0.00
2023-12-11T02:46:41.387Z,0.00
2023-12-11T02:47:41.527Z,0.00
2023-12-11T02:48:41.643Z,0.00
2023-12-11T02:49:41.384Z,0.00
2023-12-11T02:50:41.408Z,0.00
2023-12-11T02:51:41.370Z,0.00
2023-12-11T02:52:41.409Z,0.00
2023-12-11T02:53:41.331Z,0.00
2023-12-11T02:54:41.326Z,0.00
2023-12-11T02:55:41.296Z,0.00
2023-12-11T02:56:41.327Z,0.00
2023-12-11T02:57:41.332Z,0.00
2023-12-11T02:58:41.374Z,0.00
2023-12-11T02:59:41.249Z,0.00
2023-12-11T03:00:41.321Z,0.00
2023-12-11T03:01:41.462Z,0.00
2023-12-11T03:02:41.370Z,0.00
2023-12-11T03:03:41.267Z,0.00
2023-12-11T03:04:41.266Z,0.00
2023-12-11T03:05:41.211Z,0.00
2023-12-11T03:06:41.259Z,0.00
2023-12-11T03:07:41.398Z,0.00
2023-12-11T03:08:41.149Z,0.00
2023-12-11T03:09:41.145Z,0.00
2023-12-11T03:10:41.163Z,0.00
2023-12-11T03:11:41.166Z,0.00
2023-12-11T03:12:41.133Z,0.00
2023-12-11T03:13:41.087Z,0.00
2023-12-11T03:14:41.153Z,0.00
2023-12-11T03:15:41.102Z,0.00
2023-12-11T03:16:41.054Z,0.00
2023-12-11T03:17:41.140Z,0.00
2023-12-11T03:18:41.179Z,0.00
2023-12-11T03:19:41.130Z,0.00
2023-12-11T03:20:41.036Z,0.00
2023-12-11T03:21:41.063Z,0.00
2023-12-11T03:22:41.036Z,0.00
2023-12-11T03:23:41.023Z,0.00
2023-12-11T03:24:41.015Z,0.00
2023-12-11T03:25:40.973Z,0.00
2023-12-11T03:26:40.994Z,0.00
2023-12-11T03:27:40.984Z,0.00
2023-12-11T03:28:41.066Z,0.00
2023-12-11T03:29:40.982Z,0.00
2023-12-11T03:30:40.950Z,0.00
2023-12-11T03:31:40.892Z,0.00
2023-12-11T03:32:40.925Z,0.00
2023-12-11T03:33:40.949Z,0.00
2023-12-11T03:34:41.000Z,0.00
2023-12-11T03:35:40.897Z,0.00
2023-12-11T03:36:40.888Z,0.00
2023-12-11T03:37:40.839Z,0.00
2023-12-11T03:38:40.820Z,0.00
2023-12-11T03:39:43.328Z,0.00
2023-12-11T03:40:40.803Z,0.00
2023-12-11T03:41:40.840Z,0.00
2023-12-11T03:42:40.801Z,0.00
2023-12-11T03:43:40.782Z,0.00
2023-12-11T03:44:40.812Z,0.00
2023-12-11T03:45:40.769Z,0.00
2023-12-11T03:46:40.736Z,0.00
2023-12-11T03:47:40.745Z,0.00
2023-12-11T03:48:40.796Z,0.00
2023-12-11T03:49:40.876Z,0.00
2023-12-11T03:50:40.747Z,0.00
2023-12-11T03:51:40.768Z,0.00
2023-12-11T03:52:40.706Z,0.00
2023-12-11T03:53:40.651Z,0.00
2023-12-11T03:54:40.700Z,0.00
2023-12-11T03:55:40.629Z,0.00
2023-12-11T03:56:40.612Z,0.00
2023-12-11T03:57:40.621Z,0.00
2023-12-11T03:58:40.622Z,0.00
2023-12-11T03:59:40.609Z,0.00
2023-12-11T04:00:40.644Z,0.00
2023-12-11T04:01:40.632Z,0.00
2023-12-11T04:02:41.465Z,0.00
2023-12-11T04:03:40.669Z,0.00
2023-12-11T04:04:40.729Z,0.00
2023-12-11T04:05:40.623Z,0.00
2023-12-11T04:06:40.518Z,0.00
2023-12-11T04:07:40.488Z,0.00
2023-12-11T04:08:40.500Z,0.00
2023-12-11T04:09:40.498Z,0.00
2023-12-11T04:10:40.482Z,0.00
2023-12-11T04:11:40.449Z,0.00
2023-12-11T04:12:40.457Z,0.00
2023-12-11T04:13:40.425Z,0.00
2023-12-11T04:14:40.406Z,0.00
2023-12-11T04:15:40.460Z,0.00
2023-12-11T04:16:40.390Z,0.00
2023-12-11T04:17:40.421Z,0.00
2023-12-11T04:18:41.245Z,0.00
2023-12-11T04:19:40.440Z,0.00
2023-12-11T04:20:40.401Z,0.00
2023-12-11T04:21:41.161Z,0.00
2023-12-11T04:22:40.385Z,0.00
2023-12-11T04:23:41.233Z,0.00
2023-12-11T04:24:41.178Z,0.00
2023-12-11T04:25:40.317Z,0.00
2023-12-11T04:26:40.312Z,0.00
2023-12-11T04:27:40.308Z,0.00
2023-12-11T04:28:40.262Z,0.00
2023-12-11T04:29:40.423Z,0.00
2023-12-11T04:30:40.353Z,0.00
2023-12-11T04:31:40.234Z,0.00
2023-12-11T04:32:40.396Z,0.00
2023-12-11T04:33:41.303Z,0.00
2023-12-11T04:34:40.224Z,0.00
2023-12-11T04:35:40.557Z,0.00
2023-12-11T04:36:40.203Z,0.00
2023-12-11T04:37:40.159Z,0.00
2023-12-11T04:38:40.131Z,0.00
2023-12-11T04:39:40.217Z,0.00
2023-12-11T04:40:40.172Z,0.00
2023-12-11T04:41:40.101Z,0.00
2023-12-11T04:42:40.154Z,0.00
2023-12-11T04:43:40.081Z,0.00
2023-12-11T04:44:40.995Z,0.00
2023-12-11T04:45:40.248Z,0.00
2023-12-11T04:46:40.052Z,0.00
2023-12-11T04:47:40.077Z,0.00
2023-12-11T04:48:40.247Z,0.00
2023-12-11T04:49:40.328Z,0.00
2023-12-11T04:50:40.014Z,0.00
2023-12-11T04:51:40.026Z,0.00
2023-12-11T04:52:40.048Z,0.00
2023-12-11T04:53:40.094Z,0.00
2023-12-11T04:54:40.034Z,0.00
2023-12-11T04:55:40.146Z,0.00
2023-12-11T04:56:39.995Z,0.00
2023-12-11T04:57:40.007Z,0.00
2023-12-11T04:58:39.995Z,0.00
2023-12-11T04:59:42.463Z,0.00
2023-12-11T05:00:39.928Z,0.00
2023-12-11T05:01:39.941Z,0.00
2023-12-11T05:02:39.953Z,0.00
2023-12-11T05:03:39.898Z,0.00
2023-12-11T05:04:40.609Z,0.00
2023-12-11T05:05:40.768Z,0.00
2023-12-11T05:06:39.861Z,0.00
2023-12-11T05:07:39.832Z,0.00
2023-12-11T05:08:39.806Z,0.00
2023-12-11T05:09:40.194Z,0.00
2023-12-11T05:10:39.767Z,0.00
2023-12-11T05:11:39.805Z,0.00
2023-12-11T05:12:39.882Z,0.00
2023-12-11T05:13:39.742Z,0.00
2023-12-11T05:14:39.748Z,0.00
2023-12-11T05:15:39.775Z,0.00
2023-12-11T05:16:39.704Z,0.00
2023-12-11T05:17:39.724Z,0.00
2023-12-11T05:18:39.774Z,0.00
2023-12-11T05:19:39.931Z,0.00
2023-12-11T05:20:40.516Z,0.00
2023-12-11T05:21:39.692Z,0.00
2023-12-11T05:22:39.655Z,0.00
2023-12-11T05:23:39.851Z,0.00
2023-12-11T05:24:39.647Z,0.00
2023-12-11T05:25:40.397Z,0.00
2023-12-11T05:26:39.606Z,0.00
2023-12-11T05:27:39.606Z,0.00
2023-12-11T05:28:39.611Z,0.00
2023-12-11T05:29:39.596Z,0.00
2023-12-11T05:30:39.632Z,0.00
2023-12-11T05:31:39.557Z,0.00
2023-12-11T05:32:39.665Z,0.00
2023-12-11T05:33:39.718Z,0.00
2023-12-11T05:34:39.621Z,0.00
2023-12-11T05:35:39.557Z,0.00
2023-12-11T05:36:39.592Z,0.00
2023-12-11T05:37:39.463Z,0.00
2023-12-11T05:38:39.486Z,0.00
2023-12-11T05:39:41.587Z,0.00
2023-12-11T05:40:40.488Z,0.00
2023-12-11T05:41:39.478Z,0.00
2023-12-11T05:42:39.461Z,0.00
2023-12-11T05:43:39.424Z,0.00
2023-12-11T05:44:39.621Z,0.00
2023-12-11T05:45:39.429Z,0.00
2023-12-11T05:46:39.425Z,0.00
2023-12-11T05:47:39.442Z,0.00
2023-12-11T05:48:39.713Z,0.00
2023-12-11T05:49:39.402Z,0.00
2023-12-11T05:50:41.355Z,0.00
2023-12-11T05:51:39.426Z,0.00
2023-12-11T05:52:39.339Z,0.00
2023-12-11T05:53:39.306Z,0.00
2023-12-11T05:54:39.306Z,0.00
2023-12-11T05:55:39.267Z,0.00
2023-12-11T05:56:39.307Z,0.00
2023-12-11T05:57:39.301Z,0.00
2023-12-11T05:58:39.282Z,0.00
2023-12-11T05:59:39.316Z,0.00
2023-12-11T06:00:39.287Z,0.00
2023-12-11T06:01:39.422Z,0.00
2023-12-11T06:02:39.250Z,0.00
2023-12-11T06:03:39.205Z,0.00
2023-12-11T06:04:39.990Z,0.00
2023-12-11T06:05:40.210Z,0.00
2023-12-11T06:06:39.223Z,0.00
2023-12-11T06:07:39.344Z,0.00
2023-12-11T06:08:39.139Z,0.00
2023-12-11T06:09:39.188Z,0.00
2023-12-11T06:10:39.130Z,0.00
2023-12-11T06:11:39.125Z,0.00
2023-12-11T06:12:39.121Z,0.00
2023-12-11T06:13:39.073Z,0.00
2023-12-11T06:14:39.082Z,0.00
2023-12-11T06:15:39.166Z,0.00
2023-12-11T06:16:39.047Z,0.00
2023-12-11T06:17:39.165Z,0.00
2023-12-11T06:18:39.189Z,0.00
2023-12-11T06:19:39.057Z,0.00
2023-12-11T06:20:39.017Z,0.00
2023-12-11T06:21:39.005Z,0.00
2023-12-11T06:22:39.000Z,0.00
2023-12-11T06:23:38.958Z,0.00
2023-12-11T06:24:38.971Z,0.00
2023-12-11T06:25:39.049Z,0.00
2023-12-11T06:26:39.758Z,0.00
2023-12-11T06:27:38.979Z,0.00
2023-12-11T06:28:38.942Z,0.00
2023-12-11T06:29:38.945Z,0.00
2023-12-11T06:30:38.903Z,0.00
2023-12-11T06:31:39.676Z,0.00
2023-12-11T06:32:38.953Z,0.00
2023-12-11T06:33:38.976Z,0.00
2023-12-11T06:34:38.890Z,0.00
2023-12-11T06:35:38.855Z,0.00
2023-12-11T06:36:38.879Z,0.00
2023-12-11T06:37:38.811Z,0.00
2023-12-11T06:38:38.830Z,0.00
2023-12-11T06:39:38.981Z,0.00
2023-12-11T06:40:38.822Z,0.00
2023-12-11T06:41:38.794Z,0.00
2023-12-11T06:42:38.911Z,0.00
2023-12-11T06:43:38.772Z,0.00
2023-12-11T06:44:38.746Z,0.00
2023-12-11T06:45:39.393Z,0.00
2023-12-11T06:46:39.522Z,0.00
2023-12-11T06:47:38.779Z,0.00
2023-12-11T06:48:39.005Z,0.00
2023-12-11T06:49:39.007Z,0.00
2023-12-11T06:50:38.680Z,0.00
2023-12-11T06:51:38.779Z,0.00
2023-12-11T06:52:38.717Z,0.00
2023-12-11T06:53:38.852Z,0.00
2023-12-11T06:54:38.663Z,0.00
2023-12-11T06:55:38.634Z,4.00
2023-12-11T06:56:38.611Z,4.00
2023-12-11T06:57:38.632Z,0.00
2023-12-11T06:58:38.580Z,4.00
2023-12-11T06:59:38.562Z,4.00
2023-12-11T07:00:38.732Z,4.00
2023-12-11T07:01:38.689Z,8.00
2023-12-11T07:02:38.641Z,8.00
2023-12-11T07:03:38.663Z,8.00
2023-12-11T07:04:38.864Z,8.00
2023-12-11T07:05:38.705Z,8.00
2023-12-11T07:06:39.452Z,12.00
2023-12-11T07:07:38.584Z,16.00
2023-12-11T07:08:38.543Z,12.00
2023-12-11T07:09:38.574Z,16.00
2023-12-11T07:10:39.474Z,20.00
2023-12-11T07:11:38.497Z,20.00
2023-12-11T07:12:38.531Z,20.00
2023-12-11T07:13:38.515Z,20.00
2023-12-11T07:14:38.434Z,28.00
2023-12-11T07:15:38.431Z,24.00
2023-12-11T07:16:38.389Z,36.00
2023-12-11T07:17:38.781Z,40.00
2023-12-11T07:18:38.533Z,36.00
2023-12-11T07:19:38.523Z,36.00
2023-12-11T07:20:38.393Z,40.00
2023-12-11T07:21:38.367Z,36.00
2023-12-11T07:22:38.341Z,52.00
2023-12-11T07:23:38.319Z,52.00
2023-12-11T07:24:38.408Z,52.00
2023-12-11T07:25:38.395Z,60.00
2023-12-11T07:26:39.006Z,60.00
2023-12-11T07:27:38.311Z,64.00
2023-12-11T07:28:39.094Z,60.00
2023-12-11T07:29:38.269Z,64.00
2023-12-11T07:30:38.273Z,72.00
2023-12-11T07:31:38.210Z,72.00
2023-12-11T07:32:38.440Z,68.00
2023-12-11T07:33:38.469Z,60.00
2023-12-11T07:34:38.287Z,76.00
2023-12-11T07:35:38.217Z,84.00
2023-12-11T07:36:38.187Z,96.00
2023-12-11T07:37:38.146Z,76.00
2023-12-11T07:38:38.117Z,92.00
2023-12-11T07:39:38.134Z,116.00
2023-12-11T07:40:38.166Z,88.00
2023-12-11T07:41:38.857Z,88.00
2023-12-11T07:42:38.179Z,116.00
2023-12-11T07:43:38.067Z,160.00
2023-12-11T07:44:38.806Z,148.00
2023-12-11T07:45:38.128Z,184.00
2023-12-11T07:46:39.367Z,176.00
2023-12-11T07:47:38.934Z,180.00
2023-12-11T07:48:39.027Z,168.00
2023-12-11T07:49:38.100Z,156.00
2023-12-11T07:50:38.045Z,204.00
2023-12-11T07:51:38.035Z,188.00
2023-12-11T07:52:38.048Z,228.00
2023-12-11T07:53:38.053Z,212.00
2023-12-11T07:54:38.039Z,224.00
2023-12-11T07:55:37.958Z,280.00
2023-12-11T07:56:37.944Z,240.00
2023-12-11T07:57:37.929Z,204.00
2023-12-11T07:58:37.935Z,204.00
2023-12-11T07:59:37.888Z,176.00
2023-12-11T08:00:37.921Z,200.00
2023-12-11T08:01:37.929Z,204.00
2023-12-11T08:02:37.864Z,236.00
2023-12-11T08:03:37.938Z,232.00
2023-12-11T08:04:37.927Z,200.00
2023-12-11T08:05:37.819Z,188.00
2023-12-11T08:06:37.824Z,180.00
2023-12-11T08:07:37.926Z,180.00
2023-12-11T08:08:37.807Z,208.00
2023-12-11T08:09:38.760Z,240.00
2023-12-11T08:10:37.930Z,224.00
2023-12-11T08:11:38.032Z,216.00
2023-12-11T08:12:37.770Z,264.00
2023-12-11T08:13:37.734Z,240.00
2023-12-11T08:14:39.470Z,188.00
2023-12-11T08:15:37.790Z,200.00
2023-12-11T08:16:37.958Z,188.00
2023-12-11T08:17:37.765Z,220.00
2023-12-11T08:18:37.780Z,240.00
2023-12-11T08:19:37.854Z,308.00
2023-12-11T08:20:37.653Z,244.00
2023-12-11T08:21:37.654Z,332.00
2023-12-11T08:22:37.630Z,304.00
2023-12-11T08:23:37.638Z,468.00
2023-12-11T08:24:37.675Z,460.00
2023-12-11T08:25:37.624Z,444.00
2023-12-11T08:26:37.671Z,460.00
2023-12-11T08:27:37.672Z,616.00
2023-12-11T08:28:38.468Z,488.00
2023-12-11T08:29:38.361Z,500.00
2023-12-11T08:30:37.618Z,468.00
2023-12-11T08:31:37.573Z,580.00
2023-12-11T08:32:38.034Z,484.00
2023-12-11T08:33:37.553Z,440.00
2023-12-11T08:34:37.701Z,404.00
2023-12-11T08:35:37.487Z,360.00
2023-12-11T08:36:37.531Z,312.00
2023-12-11T08:37:37.536Z,348.00
2023-12-11T08:38:37.496Z,288.00
2023-12-11T08:39:38.421Z,404.00
2023-12-11T08:40:37.438Z,584.00
2023-12-11T08:41:37.469Z,560.00
2023-12-11T08:42:40.825Z,496.00
2023-12-11T08:43:37.437Z,388.00
2023-12-11T08:44:37.439Z,456.00
2023-12-11T08:45:37.468Z,324.00
2023-12-11T08:46:37.370Z,280.00
2023-12-11T08:47:39.697Z,232.00
2023-12-11T08:48:37.585Z,228.00
2023-12-11T08:49:37.580Z,220.00
2023-12-11T08:50:37.468Z,248.00
2023-12-11T08:51:37.353Z,232.00
2023-12-11T08:52:37.292Z,244.00
2023-12-11T08:53:37.298Z,516.00
2023-12-11T08:54:37.346Z,632.00
2023-12-11T08:55:37.261Z,508.00
2023-12-11T08:56:37.271Z,536.00
2023-12-11T08:57:37.292Z,652.00
2023-12-11T08:58:37.223Z,644.00
2023-12-11T08:59:37.241Z,696.00
2023-12-11T09:00:37.291Z,640.00
2023-12-11T09:01:37.300Z,592.00
2023-12-11T09:02:37.243Z,596.00
2023-12-11T09:03:37.232Z,672.00
2023-12-11T09:04:37.359Z,800.00
2023-12-11T09:05:37.189Z,852.00
2023-12-11T09:06:37.698Z,920.00
2023-12-11T09:07:37.130Z,940.00
2023-12-11T09:08:37.136Z,1016.00
2023-12-11T09:09:37.733Z,1204.00
2023-12-11T09:10:37.606Z,1212.00
2023-12-11T09:11:37.094Z,1016.00
2023-12-11T09:12:37.133Z,988.00
2023-12-11T09:13:37.124Z,968.00
2023-12-11T09:14:37.050Z,852.00
2023-12-11T09:15:37.056Z,944.00
2023-12-11T09:16:37.162Z,1076.00
2023-12-11T09:17:37.399Z,1084.00
2023-12-11T09:18:37.269Z,1156.00
2023-12-11T09:19:44.628Z,1340.00
2023-12-11T09:20:38.098Z,1356.00
2023-12-11T09:21:37.979Z,1304.00
2023-12-11T09:22:37.053Z,1076.00
2023-12-11T09:23:37.009Z,1128.00
2023-12-11T09:24:37.789Z,1052.00
2023-12-11T09:25:37.122Z,1220.00
2023-12-11T09:26:37.794Z,1424.00
2023-12-11T09:27:37.950Z,1364.00
2023-12-11T09:28:44.185Z,1248.00
2023-12-11T09:29:37.902Z,1544.00
2023-12-11T09:30:37.774Z,1572.00
2023-12-11T09:31:37.794Z,1580.00
2023-12-11T09:32:37.043Z,1512.00
2023-12-11T09:33:36.969Z,1480.00
2023-12-11T09:34:37.009Z,1480.00
2023-12-11T09:35:37.046Z,1360.00
2023-12-11T09:36:36.913Z,1628.00
2023-12-11T09:37:36.932Z,1516.00
2023-12-11T09:38:36.823Z,1416.00
2023-12-11T09:39:36.831Z,1520.00
2023-12-11T09:40:36.795Z,1932.00
2023-12-11T09:41:36.833Z,1716.00
2023-12-11T09:42:36.815Z,1368.00
2023-12-11T09:43:36.750Z,1296.00
2023-12-11T09:44:36.746Z,1528.00
2023-12-11T09:45:36.747Z,1856.00
2023-12-11T09:46:36.752Z,1624.00
2023-12-11T09:47:36.889Z,1632.00
2023-12-11T09:48:36.758Z,1644.00
2023-12-11T09:49:36.753Z,1476.00
2023-12-11T09:50:37.526Z,2044.00
2023-12-11T09:51:36.766Z,2184.00
2023-12-11T09:52:36.685Z,2080.00
2023-12-11T09:53:36.661Z,2284.00
2023-12-11T09:54:36.658Z,1768.00
2023-12-11T09:55:36.668Z,1872.00
2023-12-11T09:56:36.623Z,1880.00
2023-12-11T09:57:36.568Z,1652.00
2023-12-11T09:58:36.619Z,1892.00
2023-12-11T09:59:36.620Z,2436.00
2023-12-11T10:00:36.638Z,2220.00
2023-12-11T10:01:36.688Z,1596.00
2023-12-11T10:02:36.616Z,1508.00
2023-12-11T10:03:36.725Z,1852.00
2023-12-11T10:04:36.544Z,2032.00
2023-12-11T10:05:36.570Z,2392.00
2023-12-11T10:06:36.487Z,2200.00
2023-12-11T10:07:36.502Z,1612.00
2023-12-11T10:08:36.460Z,1176.00
2023-12-11T10:09:36.485Z,1404.00
2023-12-11T10:10:36.451Z,1368.00
2023-12-11T10:11:37.259Z,1720.00
2023-12-11T10:12:36.418Z,1860.00
2023-12-11T10:13:36.426Z,2048.00
2023-12-11T10:14:36.484Z,1940.00
2023-12-11T10:15:36.444Z,1912.00
2023-12-11T10:16:36.490Z,2016.00
2023-12-11T10:17:37.484Z,2156.00
2023-12-11T10:18:36.466Z,1820.00
2023-12-11T10:19:36.527Z,1452.00
2023-12-11T10:20:36.471Z,1680.00
2023-12-11T10:21:36.318Z,1560.00
2023-12-11T10:22:36.307Z,1632.00
2023-12-11T10:23:36.346Z,1892.00
2023-12-11T10:24:36.319Z,1968.00
2023-12-11T10:25:36.334Z,1508.00
2023-12-11T10:26:36.335Z,1876.00
2023-12-11T10:27:36.313Z,1960.00
2023-12-11T10:28:37.290Z,1932.00
2023-12-11T10:29:36.234Z,1832.00
2023-12-11T10:30:36.262Z,1748.00
2023-12-11T10:31:37.072Z,1948.00
2023-12-11T10:32:36.254Z,2244.00
2023-12-11T10:33:36.409Z,1860.00
2023-12-11T10:34:36.285Z,1404.00
2023-12-11T10:35:36.262Z,1288.00
2023-12-11T10:36:36.152Z,1444.00
2023-12-11T10:37:36.173Z,2068.00
2023-12-11T10:38:36.162Z,2308.00
2023-12-11T10:39:36.153Z,2008.00
2023-12-11T10:40:36.103Z,2592.00
2023-12-11T10:41:36.109Z,2380.00
2023-12-11T10:42:36.083Z,2252.00
2023-12-11T10:43:50.553Z,2580.00
2023-12-11T10:44:46.719Z,2460.00
2023-12-11T10:45:37.069Z,2784.00
2023-12-11T10:46:36.208Z,2640.00
2023-12-11T10:47:36.313Z,2424.00
2023-12-11T10:48:36.146Z,1812.00
2023-12-11T10:49:36.217Z,1616.00
2023-12-11T10:50:36.010Z,1912.00
2023-12-11T10:51:36.209Z,2068.00
2023-12-11T10:52:36.744Z,1648.00
2023-12-11T10:53:36.071Z,1876.00
2023-12-11T10:54:35.980Z,1476.00
2023-12-11T10:55:36.166Z,1496.00
2023-12-11T10:56:36.070Z,2044.00
2023-12-11T10:57:36.383Z,2304.00
2023-12-11T10:58:35.952Z,2616.00
2023-12-11T10:59:35.931Z,1836.00
2023-12-11T11:00:35.925Z,2892.00
2023-12-11T11:01:35.955Z,3072.00
2023-12-11T11:02:35.933Z,2068.00
2023-12-11T11:03:35.873Z,1756.00
2023-12-11T11:04:35.853Z,1740.00
2023-12-11T11:05:35.952Z,1804.00
2023-12-11T11:06:36.659Z,1332.00
2023-12-11T11:07:36.193Z,1236.00
2023-12-11T11:08:35.856Z,1412.00
2023-12-11T11:09:35.792Z,1852.00
2023-12-11T11:10:35.776Z,2036.00
2023-12-11T11:11:35.803Z,1452.00
2023-12-11T11:12:35.780Z,1564.00
2023-12-11T11:13:36.008Z,1112.00
2023-12-11T11:14:35.750Z,752.00
2023-12-11T11:15:35.743Z,888.00
2023-12-11T11:16:35.850Z,960.00
2023-12-11T11:17:35.943Z,996.00
2023-12-11T11:18:35.755Z,716.00
2023-12-11T11:19:35.748Z,728.00
2023-12-11T11:20:35.758Z,828.00
2023-12-11T11:21:35.724Z,1116.00
2023-12-11T11:22:40.610Z,1144.00
2023-12-11T11:23:36.649Z,1052.00
2023-12-11T11:24:35.617Z,1148.00
2023-12-11T11:25:35.723Z,1160.00
2023-12-11T11:26:35.878Z,812.00
2023-12-11T11:27:35.613Z,1136.00
2023-12-11T11:28:35.651Z,996.00
2023-12-11T11:29:35.641Z,668.00
2023-12-11T11:30:35.589Z,784.00
2023-12-11T11:31:35.844Z,1084.00
2023-12-11T11:32:35.614Z,820.00
2023-12-11T11:33:36.354Z,804.00
2023-12-11T11:34:35.576Z,544.00
2023-12-11T11:35:35.577Z,644.00
2023-12-11T11:36:35.557Z,576.00
2023-12-11T11:37:35.507Z,620.00
2023-12-11T11:38:35.520Z,648.00
2023-12-11T11:39:37.743Z,588.00
2023-12-11T11:40:35.591Z,568.00
2023-12-11T11:41:35.507Z,756.00
2023-12-11T11:42:35.424Z,936.00
2023-12-11T11:43:35.454Z,748.00
2023-12-11T11:44:35.437Z,552.00
2023-12-11T11:45:35.453Z,632.00
2023-12-11T11:46:35.380Z,1120.00
2023-12-11T11:47:35.794Z,1380.00
2023-12-11T11:48:35.552Z,1592.00
2023-12-11T11:49:35.680Z,1392.00
2023-12-11T11:50:35.406Z,1560.00
2023-12-11T11:51:35.411Z,1420.00
2023-12-11T11:52:35.386Z,892.00
2023-12-11T11:53:36.267Z,864.00
2023-12-11T11:54:35.417Z,1344.00
2023-12-11T11:55:35.370Z,768.00
2023-12-11T11:56:35.285Z,628.00
2023-12-11T11:57:35.267Z,828.00
2023-12-11T11:58:35.241Z,912.00
2023-12-11T11:59:35.279Z,704.00
2023-12-11T12:00:35.269Z,928.00
2023-12-11T12:01:36.302Z,1076.00
2023-12-11T12:02:35.242Z,1044.00
2023-12-11T12:03:35.267Z,940.00
2023-12-11T12:04:35.323Z,824.00
2023-12-11T12:05:35.201Z,1304.00
2023-12-11T12:06:36.017Z,1096.00
2023-12-11T12:07:35.422Z,1156.00
2023-12-11T12:08:35.138Z,1328.00
2023-12-11T12:09:35.153Z,1104.00
2023-12-11T12:10:35.143Z,1248.00
2023-12-11T12:11:35.238Z,1356.00
2023-12-11T12:12:35.206Z,1372.00
2023-12-11T12:13:35.283Z,1596.00
2023-12-11T12:14:35.551Z,1680.00
2023-12-11T12:15:35.611Z,2048.00
2023-12-11T12:16:35.627Z,1664.00
2023-12-11T12:17:36.068Z,1188.00
2023-12-11T12:18:35.761Z,816.00
2023-12-11T12:19:35.354Z,1024.00
2023-12-11T12:20:35.068Z,1496.00
2023-12-11T12:21:35.014Z,1820.00
2023-12-11T12:22:34.996Z,1624.00
2023-12-11T12:23:34.967Z,900.00
2023-12-11T12:24:35.004Z,896.00
2023-12-11T12:25:35.061Z,696.00
2023-12-11T12:26:34.955Z,1168.00
2023-12-11T12:27:34.954Z,1556.00
2023-12-11T12:28:35.202Z,2036.00
2023-12-11T12:29:34.935Z,1992.00
2023-12-11T12:30:34.956Z,980.00
2023-12-11T12:31:34.912Z,1056.00
2023-12-11T12:32:34.935Z,956.00
2023-12-11T12:33:34.889Z,904.00
2023-12-11T12:34:35.963Z,1040.00
2023-12-11T12:35:34.894Z,940.00
2023-12-11T12:36:34.943Z,1028.00
2023-12-11T12:37:35.102Z,736.00
2023-12-11T12:38:34.902Z,612.00
2023-12-11T12:39:34.816Z,832.00
2023-12-11T12:40:34.815Z,996.00
2023-12-11T12:41:34.920Z,740.00
2023-12-11T12:42:34.783Z,604.00
2023-12-11T12:43:34.751Z,528.00
2023-12-11T12:44:34.796Z,728.00
2023-12-11T12:45:36.721Z,788.00
2023-12-11T12:46:35.185Z,688.00
2023-12-11T12:47:35.008Z,840.00
2023-12-11T12:48:34.743Z,704.00
2023-12-11T12:49:34.914Z,800.00
2023-12-11T12:50:34.709Z,404.00
2023-12-11T12:51:34.664Z,444.00
2023-12-11T12:52:34.917Z,548.00